sensor_id;sensor_type;location;lat;lon;timestamp;P1;durP1;ratioP1;P2;durP2;ratioP2
22780;SDS011;11557;50.884;4.322;2022-07-29T00:02:08;7.03;;;1.65;;
22780;SDS011;11557;50.884;4.322;2022-07-29T00:04:34;4.45;;;1.40;;
22780;SDS011;11557;50.884;4.322;2022-07-29T00:07:00;6.50;;;1.55;;
22780;SDS011;11557;50.884;4.322;2022-07-29T00:09:26;6.25;;;1.48;;
22780;SDS011;11557;50.884;4.322;2022-07-29T00:11:52;10.55;;;1.60;;
22780;SDS011;11557;50.884;4.322;2022-07-29T00:14:20;2.55;;;1.52;;
22780;SDS011;11557;50.884;4.322;2022-07-29T00:16:45;6.40;;;1.70;;
22780;SDS011;11557;50.884;4.322;2022-07-29T00:19:11;5.60;;;1.50;;
22780;SDS011;11557;50.884;4.322;2022-07-29T00:21:36;4.32;;;1.65;;
22780;SDS011;11557;50.884;4.322;2022-07-29T00:24:02;3.70;;;1.63;;
22780;SDS011;11557;50.884;4.322;2022-07-29T00:26:28;3.40;;;1.60;;
22780;SDS011;11557;50.884;4.322;2022-07-29T00:28:57;11.25;;;1.60;;
22780;SDS011;11557;50.884;4.322;2022-07-29T00:31:23;3.45;;;1.40;;
22780;SDS011;11557;50.884;4.322;2022-07-29T00:33:49;7.57;;;1.83;;
22780;SDS011;11557;50.884;4.322;2022-07-29T00:36:15;5.80;;;1.73;;
22780;SDS011;11557;50.884;4.322;2022-07-29T00:38:40;4.85;;;1.50;;
22780;SDS011;11557;50.884;4.322;2022-07-29T00:41:10;6.35;;;1.48;;
22780;SDS011;11557;50.884;4.322;2022-07-29T00:43:36;8.13;;;1.80;;
22780;SDS011;11557;50.884;4.322;2022-07-29T00:46:01;6.68;;;1.52;;
22780;SDS011;11557;50.884;4.322;2022-07-29T00:48:27;4.63;;;1.50;;
22780;SDS011;11557;50.884;4.322;2022-07-29T00:50:53;7.25;;;1.73;;
22780;SDS011;11557;50.884;4.322;2022-07-29T00:53:19;5.57;;;1.75;;
22780;SDS011;11557;50.884;4.322;2022-07-29T00:55:46;6.28;;;1.55;;
22780;SDS011;11557;50.884;4.322;2022-07-29T00:58:12;8.65;;;1.73;;
22780;SDS011;11557;50.884;4.322;2022-07-29T01:00:38;6.18;;;1.70;;
22780;SDS011;11557;50.884;4.322;2022-07-29T01:03:05;4.35;;;1.80;;
22780;SDS011;11557;50.884;4.322;2022-07-29T01:05:32;4.93;;;1.40;;
22780;SDS011;11557;50.884;4.322;2022-07-29T01:07:58;4.07;;;1.70;;
22780;SDS011;11557;50.884;4.322;2022-07-29T01:10:25;5.22;;;1.75;;
22780;SDS011;11557;50.884;4.322;2022-07-29T01:12:52;4.97;;;1.88;;
22780;SDS011;11557;50.884;4.322;2022-07-29T01:15:20;5.25;;;1.73;;
22780;SDS011;11557;50.884;4.322;2022-07-29T01:17:52;5.05;;;1.50;;
22780;SDS011;11557;50.884;4.322;2022-07-29T01:20:41;6.68;;;1.77;;
22780;SDS011;11557;50.884;4.322;2022-07-29T01:23:40;4.43;;;1.50;;
22780;SDS011;11557;50.884;4.322;2022-07-29T01:29:38;5.45;;;1.85;;
22780;SDS011;11557;50.884;4.322;2022-07-29T01:32:10;6.75;;;1.60;;
22780;SDS011;11557;50.884;4.322;2022-07-29T01:39:42;5.68;;;1.60;;
22780;SDS011;11557;50.884;4.322;2022-07-29T01:42:23;3.53;;;1.70;;
22780;SDS011;11557;50.884;4.322;2022-07-29T01:47:20;2.90;;;1.23;;
22780;SDS011;11557;50.884;4.322;2022-07-29T01:49:49;3.05;;;1.60;;
22780;SDS011;11557;50.884;4.322;2022-07-29T01:55:14;3.13;;;1.98;;
22780;SDS011;11557;50.884;4.322;2022-07-29T01:57:43;4.65;;;1.75;;
22780;SDS011;11557;50.884;4.322;2022-07-29T02:00:11;2.60;;;1.40;;
22780;SDS011;11557;50.884;4.322;2022-07-29T02:02:39;5.15;;;1.88;;
22780;SDS011;11557;50.884;4.322;2022-07-29T02:05:07;3.47;;;1.67;;
22780;SDS011;11557;50.884;4.322;2022-07-29T02:07:37;3.30;;;1.60;;
22780;SDS011;11557;50.884;4.322;2022-07-29T02:10:04;7.20;;;2.10;;
22780;SDS011;11557;50.884;4.322;2022-07-29T02:12:32;7.63;;;1.65;;
22780;SDS011;11557;50.884;4.322;2022-07-29T02:15:01;5.65;;;1.60;;
22780;SDS011;11557;50.884;4.322;2022-07-29T02:17:33;4.95;;;1.95;;
22780;SDS011;11557;50.884;4.322;2022-07-29T02:20:26;5.85;;;1.75;;
22780;SDS011;11557;50.884;4.322;2022-07-29T02:22:53;5.72;;;1.83;;
22780;SDS011;11557;50.884;4.322;2022-07-29T02:25:20;4.25;;;1.77;;
22780;SDS011;11557;50.884;4.322;2022-07-29T02:27:49;3.97;;;1.63;;
22780;SDS011;11557;50.884;4.322;2022-07-29T02:30:16;5.40;;;1.92;;
22780;SDS011;11557;50.884;4.322;2022-07-29T02:32:43;2.28;;;1.60;;
22780;SDS011;11557;50.884;4.322;2022-07-29T02:35:12;5.93;;;2.33;;
22780;SDS011;11557;50.884;4.322;2022-07-29T02:37:38;4.50;;;1.80;;
22780;SDS011;11557;50.884;4.322;2022-07-29T02:40:06;5.00;;;1.73;;
22780;SDS011;11557;50.884;4.322;2022-07-29T02:42:36;3.22;;;1.60;;
22780;SDS011;11557;50.884;4.322;2022-07-29T02:45:04;5.38;;;1.65;;
22780;SDS011;11557;50.884;4.322;2022-07-29T02:47:33;3.90;;;1.90;;
22780;SDS011;11557;50.884;4.322;2022-07-29T02:50:09;2.60;;;1.60;;
22780;SDS011;11557;50.884;4.322;2022-07-29T02:52:43;3.25;;;1.77;;
22780;SDS011;11557;50.884;4.322;2022-07-29T02:55:26;4.33;;;1.67;;
22780;SDS011;11557;50.884;4.322;2022-07-29T03:00:36;6.65;;;1.98;;
22780;SDS011;11557;50.884;4.322;2022-07-29T03:03:04;3.55;;;1.77;;
22780;SDS011;11557;50.884;4.322;2022-07-29T03:05:35;4.60;;;2.22;;
22780;SDS011;11557;50.884;4.322;2022-07-29T03:08:03;7.82;;;1.90;;
22780;SDS011;11557;50.884;4.322;2022-07-29T03:10:30;5.60;;;2.20;;
22780;SDS011;11557;50.884;4.322;2022-07-29T03:12:56;5.03;;;2.28;;
22780;SDS011;11557;50.884;4.322;2022-07-29T03:15:23;7.03;;;2.00;;
22780;SDS011;11557;50.884;4.322;2022-07-29T03:17:50;11.13;;;2.40;;
22780;SDS011;11557;50.884;4.322;2022-07-29T03:20:17;3.97;;;2.38;;
22780;SDS011;11557;50.884;4.322;2022-07-29T03:22:43;8.95;;;2.45;;
22780;SDS011;11557;50.884;4.322;2022-07-29T03:25:12;4.47;;;2.10;;
22780;SDS011;11557;50.884;4.322;2022-07-29T03:27:39;4.05;;;1.75;;
22780;SDS011;11557;50.884;4.322;2022-07-29T03:30:05;8.20;;;2.53;;
22780;SDS011;11557;50.884;4.322;2022-07-29T03:32:31;7.35;;;2.60;;
22780;SDS011;11557;50.884;4.322;2022-07-29T03:34:57;6.00;;;2.10;;
22780;SDS011;11557;50.884;4.322;2022-07-29T03:37:23;8.10;;;2.22;;
22780;SDS011;11557;50.884;4.322;2022-07-29T03:39:49;6.32;;;2.65;;
22780;SDS011;11557;50.884;4.322;2022-07-29T03:42:16;3.28;;;1.92;;
22780;SDS011;11557;50.884;4.322;2022-07-29T03:44:45;5.25;;;2.42;;
22780;SDS011;11557;50.884;4.322;2022-07-29T03:47:14;3.67;;;2.33;;
22780;SDS011;11557;50.884;4.322;2022-07-29T03:49:41;8.25;;;2.30;;
22780;SDS011;11557;50.884;4.322;2022-07-29T03:52:09;5.60;;;2.42;;
22780;SDS011;11557;50.884;4.322;2022-07-29T03:54:35;5.45;;;2.50;;
22780;SDS011;11557;50.884;4.322;2022-07-29T03:57:01;5.90;;;2.42;;
22780;SDS011;11557;50.884;4.322;2022-07-29T03:59:28;6.90;;;2.17;;
22780;SDS011;11557;50.884;4.322;2022-07-29T04:01:57;6.55;;;2.70;;
22780;SDS011;11557;50.884;4.322;2022-07-29T04:04:23;7.32;;;2.88;;
22780;SDS011;11557;50.884;4.322;2022-07-29T04:06:50;8.63;;;2.50;;
22780;SDS011;11557;50.884;4.322;2022-07-29T04:09:15;5.63;;;2.60;;
22780;SDS011;11557;50.884;4.322;2022-07-29T04:11:41;7.47;;;2.60;;
22780;SDS011;11557;50.884;4.322;2022-07-29T04:14:07;5.13;;;2.47;;
22780;SDS011;11557;50.884;4.322;2022-07-29T04:16:33;5.57;;;2.78;;
22780;SDS011;11557;50.884;4.322;2022-07-29T04:18:58;3.70;;;2.38;;
22780;SDS011;11557;50.884;4.322;2022-07-29T04:21:24;6.63;;;2.45;;
22780;SDS011;11557;50.884;4.322;2022-07-29T04:23:50;9.68;;;2.55;;
22780;SDS011;11557;50.884;4.322;2022-07-29T04:26:16;7.65;;;2.50;;
22780;SDS011;11557;50.884;4.322;2022-07-29T04:28:42;3.38;;;2.45;;
22780;SDS011;11557;50.884;4.322;2022-07-29T04:31:08;8.18;;;2.45;;
22780;SDS011;11557;50.884;4.322;2022-07-29T04:33:34;5.20;;;2.70;;
22780;SDS011;11557;50.884;4.322;2022-07-29T04:36:00;16.35;;;2.55;;
22780;SDS011;11557;50.884;4.322;2022-07-29T04:38:26;5.80;;;2.88;;
22780;SDS011;11557;50.884;4.322;2022-07-29T04:40:51;5.40;;;2.47;;
22780;SDS011;11557;50.884;4.322;2022-07-29T04:43:17;6.55;;;2.50;;
22780;SDS011;11557;50.884;4.322;2022-07-29T04:45:42;6.30;;;2.17;;
22780;SDS011;11557;50.884;4.322;2022-07-29T04:48:08;9.10;;;2.65;;
22780;SDS011;11557;50.884;4.322;2022-07-29T04:50:34;5.38;;;2.30;;
22780;SDS011;11557;50.884;4.322;2022-07-29T04:53:02;9.38;;;2.53;;
22780;SDS011;11557;50.884;4.322;2022-07-29T04:55:28;4.13;;;2.40;;
22780;SDS011;11557;50.884;4.322;2022-07-29T04:57:53;5.47;;;2.58;;
22780;SDS011;11557;50.884;4.322;2022-07-29T05:00:19;7.75;;;2.50;;
22780;SDS011;11557;50.884;4.322;2022-07-29T05:02:45;16.73;;;3.78;;
22780;SDS011;11557;50.884;4.322;2022-07-29T05:05:10;7.25;;;2.40;;
22780;SDS011;11557;50.884;4.322;2022-07-29T05:07:36;8.82;;;2.63;;
22780;SDS011;11557;50.884;4.322;2022-07-29T05:10:02;5.75;;;2.70;;
22780;SDS011;11557;50.884;4.322;2022-07-29T05:12:28;7.38;;;2.45;;
22780;SDS011;11557;50.884;4.322;2022-07-29T05:14:54;5.40;;;2.72;;
22780;SDS011;11557;50.884;4.322;2022-07-29T05:17:20;6.72;;;2.58;;
22780;SDS011;11557;50.884;4.322;2022-07-29T05:19:45;9.32;;;3.00;;
22780;SDS011;11557;50.884;4.322;2022-07-29T05:22:11;5.20;;;2.72;;
22780;SDS011;11557;50.884;4.322;2022-07-29T05:24:38;5.55;;;2.95;;
22780;SDS011;11557;50.884;4.322;2022-07-29T05:27:03;4.88;;;2.88;;
22780;SDS011;11557;50.884;4.322;2022-07-29T05:29:29;6.32;;;3.00;;
22780;SDS011;11557;50.884;4.322;2022-07-29T05:31:55;3.72;;;2.55;;
22780;SDS011;11557;50.884;4.322;2022-07-29T05:34:20;7.13;;;2.58;;
22780;SDS011;11557;50.884;4.322;2022-07-29T05:36:46;4.70;;;2.45;;
22780;SDS011;11557;50.884;4.322;2022-07-29T05:39:11;9.02;;;3.10;;
22780;SDS011;11557;50.884;4.322;2022-07-29T05:41:38;6.78;;;2.63;;
22780;SDS011;11557;50.884;4.322;2022-07-29T05:44:03;8.13;;;3.65;;
22780;SDS011;11557;50.884;4.322;2022-07-29T05:46:29;4.78;;;2.80;;
22780;SDS011;11557;50.884;4.322;2022-07-29T05:48:55;6.82;;;3.05;;
22780;SDS011;11557;50.884;4.322;2022-07-29T05:51:21;5.05;;;2.45;;
22780;SDS011;11557;50.884;4.322;2022-07-29T05:53:46;6.03;;;2.83;;
22780;SDS011;11557;50.884;4.322;2022-07-29T05:56:12;6.38;;;3.00;;
22780;SDS011;11557;50.884;4.322;2022-07-29T05:58:38;4.75;;;2.80;;
22780;SDS011;11557;50.884;4.322;2022-07-29T06:01:04;6.35;;;2.63;;
22780;SDS011;11557;50.884;4.322;2022-07-29T06:03:30;9.60;;;3.00;;
22780;SDS011;11557;50.884;4.322;2022-07-29T06:05:55;11.25;;;3.10;;
22780;SDS011;11557;50.884;4.322;2022-07-29T06:08:21;5.57;;;2.92;;
22780;SDS011;11557;50.884;4.322;2022-07-29T06:10:47;7.05;;;3.00;;
22780;SDS011;11557;50.884;4.322;2022-07-29T06:13:12;10.35;;;3.22;;
22780;SDS011;11557;50.884;4.322;2022-07-29T06:15:40;10.20;;;3.53;;
22780;SDS011;11557;50.884;4.322;2022-07-29T06:18:07;5.93;;;2.58;;
22780;SDS011;11557;50.884;4.322;2022-07-29T06:20:34;6.25;;;3.05;;
22780;SDS011;11557;50.884;4.322;2022-07-29T06:23:00;7.75;;;3.17;;
22780;SDS011;11557;50.884;4.322;2022-07-29T06:25:28;10.40;;;3.22;;
22780;SDS011;11557;50.884;4.322;2022-07-29T06:27:54;7.65;;;2.72;;
22780;SDS011;11557;50.884;4.322;2022-07-29T06:30:19;7.00;;;3.22;;
22780;SDS011;11557;50.884;4.322;2022-07-29T06:32:45;5.18;;;3.40;;
22780;SDS011;11557;50.884;4.322;2022-07-29T06:35:11;7.47;;;2.70;;
22780;SDS011;11557;50.884;4.322;2022-07-29T06:37:37;5.93;;;3.03;;
22780;SDS011;11557;50.884;4.322;2022-07-29T06:40:03;7.93;;;3.13;;
22780;SDS011;11557;50.884;4.322;2022-07-29T06:42:47;4.45;;;2.90;;
22780;SDS011;11557;50.884;4.322;2022-07-29T06:45:13;5.85;;;3.08;;
22780;SDS011;11557;50.884;4.322;2022-07-29T06:47:38;4.97;;;2.90;;
22780;SDS011;11557;50.884;4.322;2022-07-29T06:50:04;5.25;;;3.17;;
22780;SDS011;11557;50.884;4.322;2022-07-29T06:52:30;5.30;;;3.15;;
22780;SDS011;11557;50.884;4.322;2022-07-29T06:54:56;4.70;;;3.20;;
22780;SDS011;11557;50.884;4.322;2022-07-29T06:57:22;6.65;;;2.78;;
22780;SDS011;11557;50.884;4.322;2022-07-29T06:59:47;9.52;;;2.80;;
22780;SDS011;11557;50.884;4.322;2022-07-29T07:02:13;8.07;;;3.38;;
22780;SDS011;11557;50.884;4.322;2022-07-29T07:04:39;7.57;;;2.53;;
22780;SDS011;11557;50.884;4.322;2022-07-29T07:07:04;7.53;;;3.30;;
22780;SDS011;11557;50.884;4.322;2022-07-29T07:09:30;7.05;;;2.97;;
22780;SDS011;11557;50.884;4.322;2022-07-29T07:11:56;4.13;;;2.88;;
22780;SDS011;11557;50.884;4.322;2022-07-29T07:14:21;9.73;;;3.10;;
22780;SDS011;11557;50.884;4.322;2022-07-29T07:16:47;5.45;;;2.97;;
22780;SDS011;11557;50.884;4.322;2022-07-29T07:19:12;5.43;;;2.63;;
22780;SDS011;11557;50.884;4.322;2022-07-29T07:21:38;6.22;;;2.90;;
22780;SDS011;11557;50.884;4.322;2022-07-29T07:24:04;6.07;;;2.88;;
22780;SDS011;11557;50.884;4.322;2022-07-29T07:26:30;8.80;;;3.08;;
22780;SDS011;11557;50.884;4.322;2022-07-29T07:28:55;3.97;;;2.70;;
22780;SDS011;11557;50.884;4.322;2022-07-29T07:31:22;5.07;;;2.63;;
22780;SDS011;11557;50.884;4.322;2022-07-29T07:34:12;3.42;;;2.35;;
22780;SDS011;11557;50.884;4.322;2022-07-29T07:36:38;6.95;;;2.45;;
22780;SDS011;11557;50.884;4.322;2022-07-29T07:39:04;7.43;;;2.45;;
22780;SDS011;11557;50.884;4.322;2022-07-29T07:41:30;6.57;;;2.30;;
22780;SDS011;11557;50.884;4.322;2022-07-29T07:43:56;3.50;;;2.17;;
22780;SDS011;11557;50.884;4.322;2022-07-29T07:46:21;3.90;;;2.33;;
22780;SDS011;11557;50.884;4.322;2022-07-29T07:48:47;5.65;;;2.20;;
22780;SDS011;11557;50.884;4.322;2022-07-29T07:51:13;7.88;;;2.30;;
22780;SDS011;11557;50.884;4.322;2022-07-29T07:53:38;6.13;;;2.17;;
22780;SDS011;11557;50.884;4.322;2022-07-29T07:56:06;4.78;;;1.92;;
22780;SDS011;11557;50.884;4.322;2022-07-29T07:58:32;4.90;;;2.00;;
22780;SDS011;11557;50.884;4.322;2022-07-29T08:00:57;4.40;;;2.15;;
22780;SDS011;11557;50.884;4.322;2022-07-29T08:03:23;3.60;;;1.85;;
22780;SDS011;11557;50.884;4.322;2022-07-29T08:05:49;5.13;;;1.95;;
22780;SDS011;11557;50.884;4.322;2022-07-29T08:08:16;5.10;;;2.20;;
22780;SDS011;11557;50.884;4.322;2022-07-29T08:10:42;5.15;;;1.80;;
22780;SDS011;11557;50.884;4.322;2022-07-29T08:13:17;4.88;;;2.00;;
22780;SDS011;11557;50.884;4.322;2022-07-29T08:15:43;7.50;;;2.38;;
22780;SDS011;11557;50.884;4.322;2022-07-29T08:18:11;3.60;;;2.10;;
22780;SDS011;11557;50.884;4.322;2022-07-29T08:20:37;10.77;;;2.20;;
22780;SDS011;11557;50.884;4.322;2022-07-29T08:23:04;3.63;;;1.88;;
22780;SDS011;11557;50.884;4.322;2022-07-29T08:25:32;4.85;;;1.80;;
22780;SDS011;11557;50.884;4.322;2022-07-29T08:27:57;6.75;;;1.77;;
22780;SDS011;11557;50.884;4.322;2022-07-29T08:30:23;6.82;;;1.80;;
22780;SDS011;11557;50.884;4.322;2022-07-29T08:32:50;7.75;;;1.98;;
22780;SDS011;11557;50.884;4.322;2022-07-29T08:35:18;7.00;;;1.80;;
22780;SDS011;11557;50.884;4.322;2022-07-29T08:37:44;4.78;;;1.80;;
22780;SDS011;11557;50.884;4.322;2022-07-29T08:40:10;6.68;;;2.20;;
22780;SDS011;11557;50.884;4.322;2022-07-29T08:42:36;7.97;;;2.90;;
22780;SDS011;11557;50.884;4.322;2022-07-29T08:45:03;5.55;;;2.20;;
22780;SDS011;11557;50.884;4.322;2022-07-29T08:47:29;7.88;;;2.13;;
22780;SDS011;11557;50.884;4.322;2022-07-29T08:49:55;6.30;;;2.58;;
22780;SDS011;11557;50.884;4.322;2022-07-29T08:52:21;7.78;;;2.13;;
22780;SDS011;11557;50.884;4.322;2022-07-29T08:54:49;2.97;;;1.77;;
22780;SDS011;11557;50.884;4.322;2022-07-29T08:57:17;5.38;;;2.10;;
22780;SDS011;11557;50.884;4.322;2022-07-29T08:59:44;4.20;;;2.00;;
22780;SDS011;11557;50.884;4.322;2022-07-29T09:02:14;4.68;;;1.83;;
22780;SDS011;11557;50.884;4.322;2022-07-29T09:04:44;5.78;;;1.98;;
22780;SDS011;11557;50.884;4.322;2022-07-29T09:07:10;4.05;;;1.60;;
22780;SDS011;11557;50.884;4.322;2022-07-29T09:09:40;5.72;;;2.10;;
22780;SDS011;11557;50.884;4.322;2022-07-29T09:12:06;7.03;;;2.28;;
22780;SDS011;11557;50.884;4.322;2022-07-29T09:14:33;5.60;;;2.22;;
22780;SDS011;11557;50.884;4.322;2022-07-29T09:16:59;4.63;;;2.10;;
22780;SDS011;11557;50.884;4.322;2022-07-29T09:19:36;4.65;;;2.10;;
22780;SDS011;11557;50.884;4.322;2022-07-29T09:22:05;5.95;;;2.00;;
22780;SDS011;11557;50.884;4.322;2022-07-29T09:27:18;4.18;;;1.65;;
22780;SDS011;11557;50.884;4.322;2022-07-29T09:29:58;2.22;;;1.40;;
22780;SDS011;11557;50.884;4.322;2022-07-29T09:32:24;5.35;;;1.83;;
22780;SDS011;11557;50.884;4.322;2022-07-29T09:34:51;3.25;;;1.30;;
22780;SDS011;11557;50.884;4.322;2022-07-29T09:37:36;2.47;;;1.65;;
22780;SDS011;11557;50.884;4.322;2022-07-29T09:40:10;6.20;;;1.80;;
22780;SDS011;11557;50.884;4.322;2022-07-29T09:42:37;8.55;;;2.00;;
22780;SDS011;11557;50.884;4.322;2022-07-29T09:45:03;7.38;;;1.60;;
22780;SDS011;11557;50.884;4.322;2022-07-29T09:47:44;5.93;;;1.40;;
22780;SDS011;11557;50.884;4.322;2022-07-29T09:50:13;4.03;;;1.98;;
22780;SDS011;11557;50.884;4.322;2022-07-29T09:52:46;7.05;;;1.83;;
22780;SDS011;11557;50.884;4.322;2022-07-29T09:55:15;4.25;;;1.60;;
22780;SDS011;11557;50.884;4.322;2022-07-29T09:57:41;7.80;;;1.70;;
22780;SDS011;11557;50.884;4.322;2022-07-29T10:00:08;7.18;;;2.05;;
22780;SDS011;11557;50.884;4.322;2022-07-29T10:02:37;5.75;;;1.90;;
22780;SDS011;11557;50.884;4.322;2022-07-29T10:05:22;4.05;;;1.70;;
22780;SDS011;11557;50.884;4.322;2022-07-29T10:07:53;4.70;;;2.03;;
22780;SDS011;11557;50.884;4.322;2022-07-29T10:10:24;5.45;;;2.03;;
22780;SDS011;11557;50.884;4.322;2022-07-29T10:12:53;5.57;;;1.88;;
22780;SDS011;11557;50.884;4.322;2022-07-29T10:15:27;5.50;;;1.75;;
22780;SDS011;11557;50.884;4.322;2022-07-29T10:17:54;5.53;;;1.83;;
22780;SDS011;11557;50.884;4.322;2022-07-29T10:20:21;4.38;;;1.40;;
22780;SDS011;11557;50.884;4.322;2022-07-29T10:22:48;5.45;;;2.15;;
22780;SDS011;11557;50.884;4.322;2022-07-29T10:25:15;5.50;;;2.10;;
22780;SDS011;11557;50.884;4.322;2022-07-29T10:27:42;10.13;;;2.95;;
22780;SDS011;11557;50.884;4.322;2022-07-29T10:30:09;4.60;;;2.45;;
22780;SDS011;11557;50.884;4.322;2022-07-29T10:35:32;5.55;;;2.50;;
22780;SDS011;11557;50.884;4.322;2022-07-29T10:38:21;14.48;;;2.38;;
22780;SDS011;11557;50.884;4.322;2022-07-29T10:43:53;5.00;;;1.65;;
22780;SDS011;11557;50.884;4.322;2022-07-29T10:46:38;6.68;;;2.00;;
22780;SDS011;11557;50.884;4.322;2022-07-29T10:54:39;3.80;;;1.92;;
22780;SDS011;11557;50.884;4.322;2022-07-29T10:57:26;10.00;;;3.45;;
22780;SDS011;11557;50.884;4.322;2022-07-29T11:10:37;8.00;;;1.77;;
22780;SDS011;11557;50.884;4.322;2022-07-29T11:13:03;11.52;;;2.38;;
22780;SDS011;11557;50.884;4.322;2022-07-29T11:15:29;6.68;;;2.85;;
22780;SDS011;11557;50.884;4.322;2022-07-29T11:18:18;7.90;;;2.65;;
22780;SDS011;11557;50.884;4.322;2022-07-29T11:20:45;6.32;;;2.80;;
22780;SDS011;11557;50.884;4.322;2022-07-29T11:31:34;9.65;;;2.17;;
22780;SDS011;11557;50.884;4.322;2022-07-29T11:39:43;4.88;;;2.47;;
22780;SDS011;11557;50.884;4.322;2022-07-29T11:47:42;7.60;;;2.92;;
22780;SDS011;11557;50.884;4.322;2022-07-29T11:50:15;5.40;;;2.70;;
22780;SDS011;11557;50.884;4.322;2022-07-29T11:52:45;5.68;;;2.63;;
22780;SDS011;11557;50.884;4.322;2022-07-29T11:55:22;5.18;;;2.13;;
22780;SDS011;11557;50.884;4.322;2022-07-29T12:00:45;5.57;;;3.13;;
22780;SDS011;11557;50.884;4.322;2022-07-29T12:03:14;6.38;;;2.60;;
22780;SDS011;11557;50.884;4.322;2022-07-29T12:05:52;3.65;;;2.00;;
22780;SDS011;11557;50.884;4.322;2022-07-29T12:08:19;9.30;;;2.35;;
22780;SDS011;11557;50.884;4.322;2022-07-29T12:11:00;5.43;;;2.25;;
22780;SDS011;11557;50.884;4.322;2022-07-29T12:13:28;7.32;;;2.03;;
22780;SDS011;11557;50.884;4.322;2022-07-29T12:16:03;4.70;;;2.00;;
22780;SDS011;11557;50.884;4.322;2022-07-29T12:18:29;5.88;;;1.88;;
22780;SDS011;11557;50.884;4.322;2022-07-29T12:20:59;7.93;;;2.58;;
22780;SDS011;11557;50.884;4.322;2022-07-29T12:23:32;4.60;;;2.50;;
22780;SDS011;11557;50.884;4.322;2022-07-29T12:25:58;8.00;;;2.35;;
22780;SDS011;11557;50.884;4.322;2022-07-29T12:28:28;7.82;;;2.35;;
22780;SDS011;11557;50.884;4.322;2022-07-29T12:30:54;7.82;;;2.35;;
22780;SDS011;11557;50.884;4.322;2022-07-29T12:33:21;5.18;;;2.33;;
22780;SDS011;11557;50.884;4.322;2022-07-29T12:35:49;7.38;;;2.47;;
22780;SDS011;11557;50.884;4.322;2022-07-29T12:38:25;8.20;;;2.13;;
22780;SDS011;11557;50.884;4.322;2022-07-29T12:40:51;4.53;;;2.28;;
22780;SDS011;11557;50.884;4.322;2022-07-29T12:43:22;5.60;;;2.03;;
22780;SDS011;11557;50.884;4.322;2022-07-29T12:45:50;5.30;;;2.20;;
22780;SDS011;11557;50.884;4.322;2022-07-29T12:51:04;3.10;;;1.70;;
22780;SDS011;11557;50.884;4.322;2022-07-29T12:53:31;6.13;;;2.33;;
22780;SDS011;11557;50.884;4.322;2022-07-29T12:56:01;6.28;;;2.60;;
22780;SDS011;11557;50.884;4.322;2022-07-29T12:58:28;11.18;;;2.40;;
22780;SDS011;11557;50.884;4.322;2022-07-29T13:01:13;3.83;;;1.80;;
22780;SDS011;11557;50.884;4.322;2022-07-29T13:03:56;7.07;;;1.80;;
22780;SDS011;11557;50.884;4.322;2022-07-29T13:06:39;3.78;;;1.63;;
22780;SDS011;11557;50.884;4.322;2022-07-29T13:09:19;5.47;;;1.80;;
22780;SDS011;11557;50.884;4.322;2022-07-29T13:11:51;5.45;;;1.58;;
22780;SDS011;11557;50.884;4.322;2022-07-29T13:17:01;3.25;;;1.50;;
22780;SDS011;11557;50.884;4.322;2022-07-29T13:19:34;5.20;;;1.40;;
22780;SDS011;11557;50.884;4.322;2022-07-29T13:22:30;7.63;;;2.03;;
22780;SDS011;11557;50.884;4.322;2022-07-29T13:24:57;6.55;;;1.90;;
22780;SDS011;11557;50.884;4.322;2022-07-29T13:27:27;4.22;;;1.85;;
22780;SDS011;11557;50.884;4.322;2022-07-29T13:29:54;10.00;;;2.20;;
22780;SDS011;11557;50.884;4.322;2022-07-29T13:32:22;6.05;;;1.73;;
22780;SDS011;11557;50.884;4.322;2022-07-29T13:34:49;4.57;;;1.88;;
22780;SDS011;11557;50.884;4.322;2022-07-29T13:37:15;7.80;;;1.67;;
22780;SDS011;11557;50.884;4.322;2022-07-29T13:39:41;4.60;;;1.80;;
22780;SDS011;11557;50.884;4.322;2022-07-29T13:42:08;7.57;;;1.50;;
22780;SDS011;11557;50.884;4.322;2022-07-29T13:44:34;8.38;;;1.88;;
22780;SDS011;11557;50.884;4.322;2022-07-29T13:47:00;4.88;;;1.60;;
22780;SDS011;11557;50.884;4.322;2022-07-29T13:49:26;6.28;;;1.75;;
22780;SDS011;11557;50.884;4.322;2022-07-29T13:51:53;4.35;;;1.70;;
22780;SDS011;11557;50.884;4.322;2022-07-29T13:54:19;8.00;;;2.00;;
22780;SDS011;11557;50.884;4.322;2022-07-29T13:56:44;5.25;;;1.80;;
22780;SDS011;11557;50.884;4.322;2022-07-29T13:59:10;5.10;;;1.13;;
22780;SDS011;11557;50.884;4.322;2022-07-29T14:01:36;5.97;;;1.63;;
22780;SDS011;11557;50.884;4.322;2022-07-29T14:04:02;6.57;;;2.03;;
22780;SDS011;11557;50.884;4.322;2022-07-29T14:06:28;6.43;;;1.85;;
22780;SDS011;11557;50.884;4.322;2022-07-29T14:08:54;5.68;;;1.40;;
22780;SDS011;11557;50.884;4.322;2022-07-29T14:11:19;6.43;;;1.52;;
22780;SDS011;11557;50.884;4.322;2022-07-29T14:13:45;6.28;;;1.83;;
22780;SDS011;11557;50.884;4.322;2022-07-29T14:16:11;4.97;;;1.92;;
22780;SDS011;11557;50.884;4.322;2022-07-29T14:18:37;4.47;;;1.70;;
22780;SDS011;11557;50.884;4.322;2022-07-29T14:21:02;4.05;;;1.75;;
22780;SDS011;11557;50.884;4.322;2022-07-29T14:23:28;6.15;;;1.77;;
22780;SDS011;11557;50.884;4.322;2022-07-29T14:25:54;6.03;;;1.50;;
22780;SDS011;11557;50.884;4.322;2022-07-29T14:28:19;5.90;;;1.70;;
22780;SDS011;11557;50.884;4.322;2022-07-29T14:30:45;5.93;;;1.50;;
22780;SDS011;11557;50.884;4.322;2022-07-29T14:33:11;7.90;;;1.50;;
22780;SDS011;11557;50.884;4.322;2022-07-29T14:35:37;4.00;;;1.40;;
22780;SDS011;11557;50.884;4.322;2022-07-29T14:38:03;4.22;;;1.80;;
22780;SDS011;11557;50.884;4.322;2022-07-29T14:40:28;5.88;;;1.73;;
22780;SDS011;11557;50.884;4.322;2022-07-29T14:42:54;4.05;;;1.30;;
22780;SDS011;11557;50.884;4.322;2022-07-29T14:45:20;6.68;;;1.80;;
22780;SDS011;11557;50.884;4.322;2022-07-29T14:47:45;9.25;;;1.88;;
22780;SDS011;11557;50.884;4.322;2022-07-29T14:50:11;4.75;;;1.30;;
22780;SDS011;11557;50.884;4.322;2022-07-29T14:52:38;8.45;;;2.20;;
22780;SDS011;11557;50.884;4.322;2022-07-29T14:55:04;6.85;;;1.50;;
22780;SDS011;11557;50.884;4.322;2022-07-29T14:57:30;7.10;;;1.63;;
22780;SDS011;11557;50.884;4.322;2022-07-29T14:59:56;4.25;;;2.00;;
22780;SDS011;11557;50.884;4.322;2022-07-29T15:02:21;7.90;;;2.03;;
22780;SDS011;11557;50.884;4.322;2022-07-29T15:04:47;7.95;;;1.90;;
22780;SDS011;11557;50.884;4.322;2022-07-29T15:07:13;6.80;;;2.25;;
22780;SDS011;11557;50.884;4.322;2022-07-29T15:09:40;5.35;;;1.70;;
22780;SDS011;11557;50.884;4.322;2022-07-29T15:12:06;2.92;;;1.92;;
22780;SDS011;11557;50.884;4.322;2022-07-29T15:14:33;7.10;;;2.47;;
22780;SDS011;11557;50.884;4.322;2022-07-29T15:16:58;8.30;;;2.72;;
22780;SDS011;11557;50.884;4.322;2022-07-29T15:19:24;6.95;;;2.05;;
22780;SDS011;11557;50.884;4.322;2022-07-29T15:21:50;6.57;;;2.05;;
22780;SDS011;11557;50.884;4.322;2022-07-29T15:24:16;5.75;;;2.40;;
22780;SDS011;11557;50.884;4.322;2022-07-29T15:26:42;5.28;;;2.75;;
22780;SDS011;11557;50.884;4.322;2022-07-29T15:29:08;5.70;;;2.35;;
22780;SDS011;11557;50.884;4.322;2022-07-29T15:31:34;5.43;;;2.30;;
22780;SDS011;11557;50.884;4.322;2022-07-29T15:33:59;4.97;;;2.05;;
22780;SDS011;11557;50.884;4.322;2022-07-29T15:36:25;10.15;;;2.30;;
22780;SDS011;11557;50.884;4.322;2022-07-29T15:38:55;5.88;;;2.40;;
22780;SDS011;11557;50.884;4.322;2022-07-29T15:41:21;3.85;;;2.22;;
22780;SDS011;11557;50.884;4.322;2022-07-29T15:43:47;5.90;;;1.90;;
22780;SDS011;11557;50.884;4.322;2022-07-29T15:46:13;5.40;;;2.20;;
22780;SDS011;11557;50.884;4.322;2022-07-29T15:48:58;7.85;;;2.78;;
22780;SDS011;11557;50.884;4.322;2022-07-29T15:51:24;6.15;;;2.70;;
22780;SDS011;11557;50.884;4.322;2022-07-29T15:53:50;4.90;;;2.75;;
22780;SDS011;11557;50.884;4.322;2022-07-29T15:56:16;6.78;;;2.50;;
22780;SDS011;11557;50.884;4.322;2022-07-29T15:58:41;11.50;;;3.00;;
22780;SDS011;11557;50.884;4.322;2022-07-29T16:01:07;7.85;;;2.60;;
22780;SDS011;11557;50.884;4.322;2022-07-29T16:03:33;3.80;;;2.08;;